createdAt,value
2019-01-30T00:00:41.570Z,0.31
2019-01-30T00:01:41.467Z,0.28
2019-01-30T00:02:41.240Z,0.28
2019-01-30T00:03:41.241Z,0.25
2019-01-30T00:04:41.427Z,0.25
2019-01-30T00:05:41.314Z,0.22
2019-01-30T00:06:41.486Z,0.24
2019-01-30T00:07:41.282Z,0.24
2019-01-30T00:08:41.302Z,0.2
2019-01-30T00:09:41.318Z,0.22
2019-01-30T00:10:41.392Z,0.19
2019-01-30T00:11:41.409Z,0.22
2019-01-30T00:12:41.576Z,0.2
2019-01-30T00:13:41.732Z,0.19
2019-01-30T00:14:41.379Z,0.18
2019-01-30T00:15:41.255Z,0.2
2019-01-30T00:16:41.420Z,0.23
2019-01-30T00:17:41.608Z,0.21
2019-01-30T00:18:41.209Z,0.23
2019-01-30T00:19:41.210Z,0.21
2019-01-30T00:20:41.702Z,0.26
2019-01-30T00:21:41.181Z,0.24
2019-01-30T00:22:41.436Z,0.26
2019-01-30T00:23:41.326Z,0.25
2019-01-30T00:24:41.300Z,0.25
2019-01-30T00:25:41.355Z,0.24
2019-01-30T00:26:41.198Z,0.2
2019-01-30T00:27:41.265Z,0.24
2019-01-30T00:28:41.271Z,0.25
2019-01-30T00:29:41.194Z,0.25
2019-01-30T00:30:41.277Z,0.26
2019-01-30T00:31:41.274Z,0.25
2019-01-30T00:32:41.298Z,0.26
2019-01-30T00:33:41.604Z,0.24
2019-01-30T00:34:41.351Z,0.24
2019-01-30T00:35:41.334Z,0.23
2019-01-30T00:36:41.324Z,0.2
2019-01-30T00:37:41.405Z,0.19
2019-01-30T00:38:43.031Z,0.23
2019-01-30T00:39:41.695Z,0.2
2019-01-30T00:40:41.765Z,0.22
2019-01-30T00:41:41.282Z,0.25
2019-01-30T00:42:41.315Z,0.24
2019-01-30T00:43:41.435Z,0.22
2019-01-30T00:44:41.748Z,0.23
2019-01-30T00:45:41.557Z,0.19
2019-01-30T00:46:41.181Z,0.18
2019-01-30T00:47:41.536Z,0.19
2019-01-30T00:48:41.578Z,0.22
2019-01-30T00:49:41.467Z,0.21
2019-01-30T00:50:43.003Z,0.2
2019-01-30T00:51:42.180Z,0.19
2019-01-30T00:52:41.820Z,0.19
2019-01-30T00:53:41.291Z,0.16
2019-01-30T00:54:42.989Z,0.18
2019-01-30T00:55:41.447Z,0.18
2019-01-30T00:56:41.732Z,0.14
2019-01-30T00:57:41.414Z,0.13
2019-01-30T00:58:41.203Z,0.17
2019-01-30T00:59:41.656Z,0.13
2019-01-30T01:00:41.899Z,0.14
2019-01-30T01:01:41.295Z,0.11
2019-01-30T01:02:41.147Z,0.13
2019-01-30T01:03:41.134Z,0.12
2019-01-30T01:04:41.739Z,0.12
2019-01-30T01:05:41.197Z,0.08
2019-01-30T01:06:41.382Z,0.08
2019-01-30T01:07:41.532Z,0.07
2019-01-30T01:08:41.429Z,0.05
2019-01-30T01:09:41.185Z,0.05
2019-01-30T01:10:41.420Z,0.02
2019-01-30T01:11:41.446Z,0.03
2019-01-30T01:12:41.214Z,0.02
2019-01-30T01:13:41.153Z,-0.02
2019-01-30T01:14:41.465Z,-0.02
2019-01-30T01:15:41.253Z,-0.04
2019-01-30T01:16:41.578Z,-0.05
2019-01-30T01:17:41.167Z,-0.04
2019-01-30T01:18:41.404Z,-0.04
2019-01-30T01:19:41.194Z,-0.04
2019-01-30T01:20:41.632Z,-0.05
2019-01-30T01:21:41.915Z,-0.05
2019-01-30T01:22:41.172Z,-0.03
2019-01-30T01:23:41.237Z,-0.04
2019-01-30T01:24:41.627Z,0.01
2019-01-30T01:25:41.425Z,0
2019-01-30T01:26:41.317Z,-0.04
2019-01-30T01:27:41.140Z,-0.02
2019-01-30T01:28:41.421Z,-0.03
2019-01-30T01:29:41.667Z,0
2019-01-30T01:30:41.227Z,0.02
2019-01-30T01:31:41.250Z,0.04
2019-01-30T01:32:41.520Z,0.03
2019-01-30T01:33:41.389Z,0.02
2019-01-30T01:34:41.281Z,0.07
2019-01-30T01:35:41.120Z,0.04
2019-01-30T01:36:41.269Z,0.03
2019-01-30T01:37:41.136Z,0.06
2019-01-30T01:38:41.190Z,0.03
2019-01-30T01:39:41.130Z,0.06
2019-01-30T01:40:41.431Z,0.06
2019-01-30T01:41:41.432Z,0.05
2019-01-30T01:42:41.207Z,0.01
2019-01-30T01:43:41.333Z,0.01
2019-01-30T01:44:41.337Z,0
2019-01-30T01:45:41.153Z,0.03
2019-01-30T01:46:41.355Z,0.02
2019-01-30T01:47:41.577Z,0.03
2019-01-30T01:48:41.377Z,0.01
2019-01-30T01:49:41.106Z,0
2019-01-30T01:50:41.243Z,0
2019-01-30T01:51:41.723Z,0.01
2019-01-30T01:52:41.321Z,0.02
2019-01-30T01:53:41.136Z,0.02
2019-01-30T01:54:41.457Z,0.06
2019-01-30T01:55:41.057Z,0.02
2019-01-30T01:56:41.168Z,0.02
2019-01-30T01:57:41.096Z,0.02
2019-01-30T01:58:41.993Z,0.03
2019-01-30T01:59:41.161Z,0.06
2019-01-30T02:00:41.184Z,0.05
2019-01-30T02:01:41.284Z,0.07
2019-01-30T02:02:41.234Z,0.09
2019-01-30T02:03:41.211Z,0.1
2019-01-30T02:04:41.577Z,0.1
2019-01-30T02:05:41.217Z,0.09
2019-01-30T02:06:41.314Z,0.09
2019-01-30T02:07:41.144Z,0.08
2019-01-30T02:08:41.302Z,0.09
2019-01-30T02:09:41.236Z,0.09
2019-01-30T02:10:41.098Z,0.07
2019-01-30T02:11:41.754Z,0.07
2019-01-30T02:12:41.172Z,0.06
2019-01-30T02:13:41.129Z,0.06
2019-01-30T02:14:41.131Z,0.06
2019-01-30T02:15:41.606Z,0.04
2019-01-30T02:16:41.098Z,0.04
2019-01-30T02:17:41.160Z,0.08
2019-01-30T02:18:41.033Z,0.09
2019-01-30T02:19:41.150Z,0.07
2019-01-30T02:20:41.275Z,0.06
2019-01-30T02:21:41.186Z,0.05
2019-01-30T02:22:41.316Z,0.08
2019-01-30T02:23:41.133Z,0.07
2019-01-30T02:24:41.192Z,0.09
2019-01-30T02:25:41.105Z,0.1
2019-01-30T02:26:41.436Z,0.09
2019-01-30T02:27:41.017Z,0.1
2019-01-30T02:28:41.561Z,0.12
2019-01-30T02:29:41.003Z,0.12
2019-01-30T02:30:48.082Z,0.1
2019-01-30T02:31:41.935Z,0.12
2019-01-30T02:32:41.301Z,0.14
2019-01-30T02:33:41.595Z,0.15
2019-01-30T02:34:41.926Z,0.15
2019-01-30T02:35:41.040Z,0.14
2019-01-30T02:36:41.224Z,0.14
2019-01-30T02:37:41.180Z,0.14
2019-01-30T02:38:41.313Z,0.17
2019-01-30T02:39:42.798Z,0.16
2019-01-30T02:40:41.365Z,0.14
2019-01-30T02:41:41.000Z,0.14
2019-01-30T02:42:41.457Z,0.15
2019-01-30T02:43:41.102Z,0.18
2019-01-30T02:44:41.180Z,0.15
2019-01-30T02:45:41.310Z,0.13
2019-01-30T02:46:41.140Z,0.13
2019-01-30T02:47:41.057Z,0.14
2019-01-30T02:48:41.277Z,0.14
2019-01-30T02:49:41.559Z,0.14
2019-01-30T02:50:41.192Z,0.15
2019-01-30T02:51:41.012Z,0.13
2019-01-30T02:52:41.147Z,0.14
2019-01-30T02:53:41.087Z,0.12
2019-01-30T02:54:41.028Z,0.15
2019-01-30T02:55:42.781Z,0.17
2019-01-30T02:56:41.341Z,0.18
2019-01-30T02:57:41.282Z,0.16
2019-01-30T02:58:41.044Z,0.16
2019-01-30T02:59:41.362Z,0.16
2019-01-30T03:00:41.327Z,0.15
2019-01-30T03:01:40.979Z,0.18
2019-01-30T03:02:41.384Z,0.17
2019-01-30T03:03:41.178Z,0.2
2019-01-30T03:04:41.298Z,0.2
2019-01-30T03:05:41.111Z,0.2
2019-01-30T03:06:40.952Z,0.2
2019-01-30T03:07:41.226Z,0.21
2019-01-30T03:08:41.456Z,0.2
2019-01-30T03:09:41.679Z,0.16
2019-01-30T03:10:41.252Z,0.16
2019-01-30T03:11:41.259Z,0.2
2019-01-30T03:12:41.464Z,0.22
2019-01-30T03:13:41.152Z,0.22
2019-01-30T03:14:41.046Z,0.24
2019-01-30T03:15:40.979Z,0.24
2019-01-30T03:16:41.080Z,0.22
2019-01-30T03:17:41.513Z,0.26
2019-01-30T03:18:41.103Z,0.25
2019-01-30T03:19:40.952Z,0.25
2019-01-30T03:20:40.950Z,0.26
2019-01-30T03:21:41.473Z,0.26
2019-01-30T03:22:41.493Z,0.26
2019-01-30T03:23:41.350Z,0.25
2019-01-30T03:24:41.344Z,0.25
2019-01-30T03:25:41.566Z,0.23
2019-01-30T03:26:41.233Z,0.26
2019-01-30T03:27:41.782Z,0.23
2019-01-30T03:28:41.387Z,0.26
2019-01-30T03:29:41.195Z,0.25
2019-01-30T03:30:40.925Z,0.25
2019-01-30T03:31:41.096Z,0.26
2019-01-30T03:32:41.021Z,0.25
2019-01-30T03:33:40.964Z,0.28
2019-01-30T03:34:41.293Z,0.27
2019-01-30T03:35:40.978Z,0.29
2019-01-30T03:36:41.210Z,0.28
2019-01-30T03:37:41.186Z,0.29
2019-01-30T03:38:41.118Z,0.32
2019-01-30T03:39:40.971Z,0.32
2019-01-30T03:40:41.384Z,0.34
2019-01-30T03:41:40.972Z,0.34
2019-01-30T03:42:41.068Z,0.35
2019-01-30T03:43:40.986Z,0.33
2019-01-30T03:44:41.170Z,0.32
2019-01-30T03:45:40.953Z,0.33
2019-01-30T03:46:40.991Z,0.32
2019-01-30T03:47:40.908Z,0.32
2019-01-30T03:48:40.882Z,0.34
2019-01-30T03:49:41.217Z,0.36
2019-01-30T03:50:41.055Z,0.33
2019-01-30T03:51:40.899Z,0.36
2019-01-30T03:52:40.880Z,0.33
2019-01-30T03:53:40.946Z,0.32
2019-01-30T03:54:40.930Z,0.32
2019-01-30T03:55:40.988Z,0.31
2019-01-30T03:56:41.101Z,0.31
2019-01-30T03:57:41.066Z,0.32
2019-01-30T03:58:41.372Z,0.29
2019-01-30T03:59:41.287Z,0.28
2019-01-30T04:00:41.256Z,0.31
2019-01-30T04:01:40.959Z,0.27
2019-01-30T04:02:41.039Z,0.3
2019-01-30T04:03:41.220Z,0.32
2019-01-30T04:04:41.469Z,0.32
2019-01-30T04:05:41.224Z,0.32
2019-01-30T04:06:41.204Z,0.31
2019-01-30T04:07:40.985Z,0.3
2019-01-30T04:08:40.862Z,0.32
2019-01-30T04:09:41.261Z,0.29
2019-01-30T04:10:41.138Z,0.32
2019-01-30T04:11:41.249Z,0.33
2019-01-30T04:12:40.866Z,0.33
2019-01-30T04:13:40.839Z,0.33
2019-01-30T04:14:40.892Z,0.31
2019-01-30T04:15:41.178Z,0.31
2019-01-30T04:16:41.585Z,0.32
2019-01-30T04:17:41.322Z,0.32
2019-01-30T04:18:40.966Z,0.31
2019-01-30T04:19:41.423Z,0.33
2019-01-30T04:20:40.934Z,0.33
2019-01-30T04:21:40.917Z,0.32
2019-01-30T04:22:41.113Z,0.33
2019-01-30T04:23:40.882Z,0.33
2019-01-30T04:24:41.132Z,0.32
2019-01-30T04:25:41.469Z,0.32
2019-01-30T04:26:40.972Z,0.32
2019-01-30T04:27:40.988Z,0.33
2019-01-30T04:28:41.245Z,0.32
2019-01-30T04:29:41.039Z,0.33
2019-01-30T04:30:40.963Z,0.32
2019-01-30T04:31:40.977Z,0.31
2019-01-30T04:32:41.237Z,0.32
2019-01-30T04:33:40.939Z,0.33
2019-01-30T04:34:41.383Z,0.32
2019-01-30T04:35:40.784Z,0.34
2019-01-30T04:36:41.014Z,0.34
2019-01-30T04:37:40.959Z,0.34
2019-01-30T04:38:40.823Z,0.35
2019-01-30T04:39:40.874Z,0.34
2019-01-30T04:40:41.061Z,0.34
2019-01-30T04:41:40.890Z,0.34
2019-01-30T04:42:41.254Z,0.36
2019-01-30T04:43:40.975Z,0.34
2019-01-30T04:44:40.852Z,0.35
2019-01-30T04:45:41.033Z,0.34
2019-01-30T04:46:41.165Z,0.36
2019-01-30T04:47:41.020Z,0.36
2019-01-30T04:48:40.823Z,0.35
2019-01-30T04:49:40.814Z,0.37
2019-01-30T04:50:41.059Z,0.35
2019-01-30T04:51:41.246Z,0.35
2019-01-30T04:52:40.793Z,0.36
2019-01-30T04:53:41.003Z,0.37
2019-01-30T04:54:41.231Z,0.36
2019-01-30T04:55:40.751Z,0.39
2019-01-30T04:56:40.899Z,0.42
2019-01-30T04:57:41.080Z,0.4
2019-01-30T04:58:41.008Z,0.41
2019-01-30T04:59:40.950Z,0.4
2019-01-30T05:00:41.820Z,0.43
2019-01-30T05:01:50.331Z,0.4
2019-01-30T05:02:41.168Z,0.4
2019-01-30T05:03:40.922Z,0.41
2019-01-30T05:04:40.970Z,0.4
2019-01-30T05:05:41.139Z,0.42
2019-01-30T05:06:40.851Z,0.4
2019-01-30T05:07:40.953Z,0.41
2019-01-30T05:08:40.896Z,0.39
2019-01-30T05:09:40.883Z,0.4
2019-01-30T05:10:40.922Z,0.39
2019-01-30T05:11:41.258Z,0.38
2019-01-30T05:12:40.830Z,0.37
2019-01-30T05:13:40.815Z,0.38
2019-01-30T05:14:40.741Z,0.37
2019-01-30T05:15:40.878Z,0.35
2019-01-30T05:16:40.846Z,0.36
2019-01-30T05:17:40.788Z,0.33
2019-01-30T05:18:40.951Z,0.32
2019-01-30T05:19:41.083Z,0.3
2019-01-30T05:20:40.774Z,0.32
2019-01-30T05:21:41.079Z,0.33
2019-01-30T05:22:41.274Z,0.32
2019-01-30T05:23:40.759Z,0.32
2019-01-30T05:24:40.817Z,0.32
2019-01-30T05:25:41.072Z,0.3
2019-01-30T05:26:40.971Z,0.32
2019-01-30T05:27:41.216Z,0.33
2019-01-30T05:28:40.834Z,0.32
2019-01-30T05:29:40.847Z,0.32
2019-01-30T05:30:41.615Z,0.32
2019-01-30T05:31:40.827Z,0.33
2019-01-30T05:32:40.688Z,0.34
2019-01-30T05:33:41.429Z,0.34
2019-01-30T05:34:40.804Z,0.33
2019-01-30T05:35:40.773Z,0.33
2019-01-30T05:36:40.793Z,0.35
2019-01-30T05:37:41.081Z,0.4
2019-01-30T05:38:40.923Z,0.42
2019-01-30T05:39:40.906Z,0.46
2019-01-30T05:40:41.362Z,0.46
2019-01-30T05:41:41.906Z,0.46
2019-01-30T05:42:41.858Z,0.46
2019-01-30T05:43:47.088Z,0.45
2019-01-30T05:44:45.893Z,0.44
2019-01-30T05:45:42.453Z,0.44
2019-01-30T05:46:45.567Z,0.4
2019-01-30T05:47:47.089Z,0.4
2019-01-30T05:48:40.964Z,0.41
2019-01-30T05:49:42.854Z,0.41
2019-01-30T05:50:40.783Z,0.41
2019-01-30T05:51:40.883Z,0.4
2019-01-30T05:52:40.736Z,0.38
2019-01-30T05:53:41.366Z,0.38
2019-01-30T05:54:41.240Z,0.37
2019-01-30T05:55:40.820Z,0.38
2019-01-30T05:56:40.859Z,0.37
2019-01-30T05:57:40.754Z,0.35
2019-01-30T05:58:40.871Z,0.33
2019-01-30T05:59:40.807Z,0.33
2019-01-30T06:00:41.132Z,0.36
2019-01-30T06:01:40.875Z,0.33
2019-01-30T06:02:40.746Z,0.33
2019-01-30T06:03:40.815Z,0.34
2019-01-30T06:04:40.698Z,0.34
2019-01-30T06:05:41.234Z,0.34
2019-01-30T06:06:41.035Z,0.34
2019-01-30T06:07:40.752Z,0.37
2019-01-30T06:08:41.004Z,0.38
2019-01-30T06:09:40.820Z,0.37
2019-01-30T06:10:40.963Z,0.4
2019-01-30T06:11:40.713Z,0.39
2019-01-30T06:12:41.796Z,0.38
2019-01-30T06:13:40.950Z,0.39
2019-01-30T06:14:40.918Z,0.38
2019-01-30T06:15:40.625Z,0.41
2019-01-30T06:16:40.652Z,0.42
2019-01-30T06:17:42.507Z,0.44
2019-01-30T06:18:40.896Z,0.47
2019-01-30T06:19:40.624Z,0.46
2019-01-30T06:20:40.788Z,0.47
2019-01-30T06:21:40.709Z,0.52
2019-01-30T06:22:41.362Z,0.52
2019-01-30T06:23:40.746Z,0.52
2019-01-30T06:24:41.145Z,0.54
2019-01-30T06:25:40.693Z,0.54
2019-01-30T06:26:40.698Z,0.56
2019-01-30T06:27:41.062Z,0.55
2019-01-30T06:28:41.374Z,0.58
2019-01-30T06:29:41.278Z,0.54
2019-01-30T06:30:40.637Z,0.56
2019-01-30T06:31:40.851Z,0.53
2019-01-30T06:32:40.884Z,0.56
2019-01-30T06:33:40.765Z,0.51
2019-01-30T06:34:40.811Z,0.52
2019-01-30T06:35:40.933Z,0.53
2019-01-30T06:36:40.692Z,0.52
2019-01-30T06:37:41.261Z,0.51
2019-01-30T06:38:41.052Z,0.52
2019-01-30T06:39:40.943Z,0.51
2019-01-30T06:40:41.105Z,0.52
2019-01-30T06:41:42.461Z,0.54
2019-01-30T06:42:40.949Z,0.52
2019-01-30T06:43:40.971Z,0.52
2019-01-30T06:44:40.713Z,0.52
2019-01-30T06:45:42.468Z,0.51
2019-01-30T06:46:41.315Z,0.51
2019-01-30T06:47:40.891Z,0.51
2019-01-30T06:48:40.704Z,0.51
2019-01-30T06:49:40.656Z,0.49
2019-01-30T06:50:44.107Z,0.49
2019-01-30T06:51:40.618Z,0.5
2019-01-30T06:52:40.704Z,0.47
2019-01-30T06:53:40.622Z,0.48
2019-01-30T06:54:41.458Z,0.47
2019-01-30T06:55:40.679Z,0.44
2019-01-30T06:56:40.610Z,0.44
2019-01-30T06:57:40.787Z,0.44
2019-01-30T06:58:40.876Z,0.45
2019-01-30T06:59:40.585Z,0.45
2019-01-30T07:00:40.599Z,0.46
2019-01-30T07:01:40.739Z,0.44
2019-01-30T07:02:41.216Z,0.45
2019-01-30T07:03:40.841Z,0.47
2019-01-30T07:04:40.651Z,0.49
2019-01-30T07:05:40.627Z,0.45
2019-01-30T07:06:40.928Z,0.47
2019-01-30T07:07:40.600Z,0.45
2019-01-30T07:08:40.984Z,0.41
2019-01-30T07:09:40.635Z,0.46
2019-01-30T07:10:40.614Z,0.42
2019-01-30T07:11:40.675Z,0.4
2019-01-30T07:12:40.684Z,0.38
2019-01-30T07:13:40.794Z,0.37
2019-01-30T07:14:40.633Z,0.38
2019-01-30T07:15:40.990Z,0.37
2019-01-30T07:16:40.552Z,0.39
2019-01-30T07:17:41.401Z,0.4
2019-01-30T07:18:40.607Z,0.42
2019-01-30T07:19:40.591Z,0.4
2019-01-30T07:20:40.611Z,0.43
2019-01-30T07:21:40.928Z,0.42
2019-01-30T07:22:40.715Z,0.45
2019-01-30T07:23:40.570Z,0.47
2019-01-30T07:24:41.151Z,0.46
2019-01-30T07:25:41.189Z,0.45
2019-01-30T07:26:40.682Z,0.46
2019-01-30T07:27:40.767Z,0.48
2019-01-30T07:28:40.568Z,0.49
2019-01-30T07:29:40.702Z,0.47
2019-01-30T07:30:40.618Z,0.5
2019-01-30T07:31:40.870Z,0.5
2019-01-30T07:32:42.806Z,0.5
2019-01-30T07:33:40.625Z,0.51
2019-01-30T07:34:40.544Z,0.5
2019-01-30T07:35:40.669Z,0.48
2019-01-30T07:36:40.701Z,0.47
2019-01-30T07:37:42.693Z,0.48
2019-01-30T07:38:41.621Z,0.52
2019-01-30T07:39:40.507Z,0.52
2019-01-30T07:40:42.385Z,0.53
2019-01-30T07:41:40.572Z,0.5
2019-01-30T07:42:40.876Z,0.53
2019-01-30T07:43:40.907Z,0.55
2019-01-30T07:44:51.398Z,0.55
2019-01-30T07:45:40.578Z,0.57
2019-01-30T07:46:40.912Z,0.6
2019-01-30T07:47:40.617Z,0.59
2019-01-30T07:48:40.612Z,0.63
2019-01-30T07:49:40.551Z,0.65
2019-01-30T07:50:40.944Z,0.62
2019-01-30T07:51:40.931Z,0.59
2019-01-30T07:52:40.654Z,0.63
2019-01-30T07:53:40.933Z,0.62
2019-01-30T07:54:40.673Z,0.62
2019-01-30T07:55:40.742Z,0.63
2019-01-30T07:56:40.604Z,0.61
2019-01-30T07:57:40.777Z,0.65
2019-01-30T07:58:40.545Z,0.64
2019-01-30T07:59:40.611Z,0.65
2019-01-30T08:00:40.501Z,0.64
2019-01-30T08:01:42.359Z,0.64
2019-01-30T08:02:54.004Z,0.69
2019-01-30T08:03:40.930Z,0.71
2019-01-30T08:04:40.926Z,0.72
2019-01-30T08:05:40.553Z,0.72
2019-01-30T08:06:41.750Z,0.76
2019-01-30T08:07:40.958Z,0.76
2019-01-30T08:08:40.972Z,0.78
2019-01-30T08:09:41.385Z,0.77
2019-01-30T08:10:40.560Z,0.77
2019-01-30T08:11:40.645Z,0.81
2019-01-30T08:12:40.885Z,0.82
2019-01-30T08:13:40.869Z,0.83
2019-01-30T08:14:40.883Z,0.82
2019-01-30T08:15:40.539Z,0.83
2019-01-30T08:16:40.682Z,0.83
2019-01-30T08:17:40.623Z,0.86
2019-01-30T08:18:41.014Z,0.86
2019-01-30T08:19:40.495Z,0.84
2019-01-30T08:20:40.609Z,0.86
2019-01-30T08:21:40.617Z,0.87
2019-01-30T08:22:42.685Z,0.88
2019-01-30T08:23:42.069Z,0.88
2019-01-30T08:24:41.852Z,0.86
2019-01-30T08:25:40.996Z,0.88
2019-01-30T08:26:42.011Z,0.88
2019-01-30T08:27:42.122Z,0.92
2019-01-30T08:28:41.666Z,0.95
2019-01-30T08:29:42.246Z,0.96
2019-01-30T08:30:41.056Z,0.99
2019-01-30T08:31:41.621Z,0.96
2019-01-30T08:32:42.632Z,0.95
2019-01-30T08:33:40.600Z,0.97
2019-01-30T08:34:40.464Z,0.99
2019-01-30T08:35:40.575Z,1
2019-01-30T08:36:40.581Z,1.01
2019-01-30T08:37:40.699Z,1.01
2019-01-30T08:38:40.597Z,1.04
2019-01-30T08:39:40.521Z,1.06
2019-01-30T08:40:40.622Z,1.08
2019-01-30T08:41:40.586Z,1.1
2019-01-30T08:42:40.554Z,1.09
2019-01-30T08:43:40.615Z,1.14
2019-01-30T08:44:47.576Z,1.14
2019-01-30T08:45:40.663Z,1.14
2019-01-30T08:46:40.428Z,1.18
2019-01-30T08:47:40.409Z,1.16
2019-01-30T08:48:40.664Z,1.21
2019-01-30T08:49:40.635Z,1.22
2019-01-30T08:50:40.527Z,1.22
2019-01-30T08:51:40.581Z,1.25
2019-01-30T08:52:41.959Z,1.26
2019-01-30T08:53:40.828Z,1.28
2019-01-30T08:54:40.430Z,1.3
2019-01-30T08:55:40.775Z,1.31
2019-01-30T08:56:53.585Z,1.31
2019-01-30T08:57:40.796Z,1.33
2019-01-30T08:58:40.527Z,1.35
2019-01-30T08:59:40.412Z,1.36
2019-01-30T09:00:40.450Z,1.38
2019-01-30T09:01:40.635Z,1.38
2019-01-30T09:02:40.680Z,1.38
2019-01-30T09:03:40.499Z,1.39
2019-01-30T09:04:40.509Z,1.43
2019-01-30T09:05:40.617Z,1.43
2019-01-30T09:06:40.523Z,1.45
2019-01-30T09:07:45.021Z,1.48
2019-01-30T09:08:40.610Z,1.49
2019-01-30T09:09:40.639Z,1.49
2019-01-30T09:10:40.489Z,1.5
2019-01-30T09:11:40.863Z,1.51
2019-01-30T09:12:40.672Z,1.55
2019-01-30T09:13:40.580Z,1.56
2019-01-30T09:14:40.572Z,1.58
2019-01-30T09:15:40.572Z,1.63
2019-01-30T09:16:40.430Z,1.63
2019-01-30T09:17:40.400Z,1.64
2019-01-30T09:18:40.709Z,1.69
2019-01-30T09:19:40.468Z,1.69
2019-01-30T09:20:40.412Z,1.7
2019-01-30T09:21:41.042Z,1.73
2019-01-30T09:22:40.397Z,1.76
2019-01-30T09:23:43.267Z,1.78
2019-01-30T09:24:40.404Z,1.81
2019-01-30T09:25:42.176Z,1.83
2019-01-30T09:26:40.763Z,1.81
2019-01-30T09:27:40.593Z,1.84
2019-01-30T09:28:40.386Z,1.84
2019-01-30T09:29:40.400Z,1.86
2019-01-30T09:30:40.542Z,1.87
2019-01-30T09:31:40.388Z,1.89
2019-01-30T09:32:40.897Z,1.89
2019-01-30T09:33:40.445Z,1.89
2019-01-30T09:34:40.717Z,1.93
2019-01-30T09:35:40.665Z,1.92
2019-01-30T09:36:40.700Z,1.93
2019-01-30T09:37:41.284Z,1.92
2019-01-30T09:38:41.115Z,1.94
2019-01-30T09:39:40.413Z,1.97
2019-01-30T09:40:40.890Z,1.99
2019-01-30T09:41:40.372Z,2
2019-01-30T09:42:40.420Z,2
2019-01-30T09:43:40.471Z,2.02
2019-01-30T09:44:40.771Z,2.05
2019-01-30T09:45:41.042Z,2.06
2019-01-30T09:46:40.576Z,2.06
2019-01-30T09:47:40.750Z,2.08
2019-01-30T09:48:40.754Z,2.11
2019-01-30T09:49:40.900Z,2.13
2019-01-30T09:50:40.373Z,2.13
2019-01-30T09:51:40.561Z,2.15
2019-01-30T09:52:41.254Z,2.18
2019-01-30T09:53:40.424Z,2.18
2019-01-30T09:54:40.512Z,2.19
2019-01-30T09:55:40.636Z,2.22
2019-01-30T09:56:40.832Z,2.2
2019-01-30T09:57:40.572Z,2.21
2019-01-30T09:58:40.324Z,2.24
2019-01-30T09:59:40.458Z,2.24
2019-01-30T10:00:40.337Z,2.25
2019-01-30T10:01:40.278Z,2.24
2019-01-30T10:02:40.520Z,2.27
2019-01-30T10:03:40.624Z,2.27
2019-01-30T10:04:40.481Z,2.28
2019-01-30T10:05:40.317Z,2.31
2019-01-30T10:06:40.493Z,2.32
2019-01-30T10:07:40.927Z,2.33
2019-01-30T10:08:40.403Z,2.35
2019-01-30T10:09:40.297Z,2.38
2019-01-30T10:10:40.610Z,2.44
2019-01-30T10:11:40.581Z,2.47
2019-01-30T10:12:40.442Z,2.51
2019-01-30T10:13:40.764Z,2.52
2019-01-30T10:14:41.182Z,2.53
2019-01-30T10:15:40.308Z,2.55
2019-01-30T10:16:40.536Z,2.56
2019-01-30T10:17:40.589Z,2.57
2019-01-30T10:18:40.347Z,2.62
2019-01-30T10:19:42.178Z,2.63
2019-01-30T10:20:40.341Z,2.64
2019-01-30T10:21:40.354Z,2.64
2019-01-30T10:22:40.379Z,2.68
2019-01-30T10:23:40.462Z,2.69
2019-01-30T10:25:40.459Z,2.72
2019-01-30T10:26:40.329Z,2.75
2019-01-30T10:27:40.386Z,2.75
2019-01-30T10:28:40.341Z,2.75
2019-01-30T10:29:40.657Z,2.79
2019-01-30T10:30:40.486Z,2.82
2019-01-30T10:31:40.364Z,2.89
2019-01-30T10:32:40.440Z,2.95
2019-01-30T10:33:47.127Z,2.95
2019-01-30T10:34:40.435Z,3
2019-01-30T10:35:40.328Z,2.99
2019-01-30T10:36:41.013Z,3
2019-01-30T10:37:40.962Z,3
2019-01-30T10:38:40.322Z,2.99
2019-01-30T10:39:40.250Z,3.01
2019-01-30T10:40:41.247Z,3.02
2019-01-30T10:41:41.197Z,3.06
2019-01-30T10:42:40.607Z,3.1
2019-01-30T10:43:40.293Z,3.12
2019-01-30T10:44:40.309Z,3.11
2019-01-30T10:45:40.797Z,3.13
2019-01-30T10:46:40.578Z,3.12
2019-01-30T10:47:40.819Z,3.11
2019-01-30T10:48:40.324Z,3.14
2019-01-30T10:49:40.696Z,3.17
2019-01-30T10:50:40.351Z,3.21
2019-01-30T10:51:40.329Z,3.18
2019-01-30T10:52:40.501Z,3.17
2019-01-30T10:53:40.448Z,3.17
2019-01-30T10:54:40.215Z,3.18
2019-01-30T10:55:40.333Z,3.18
2019-01-30T10:56:40.296Z,3.19
2019-01-30T10:57:40.237Z,3.22
2019-01-30T10:58:40.275Z,3.25
2019-01-30T10:59:40.245Z,3.26
2019-01-30T11:00:40.251Z,3.26
2019-01-30T11:01:40.338Z,3.26
2019-01-30T11:02:40.348Z,3.29
2019-01-30T11:03:40.175Z,3.29
2019-01-30T11:04:40.303Z,3.29
2019-01-30T11:05:40.252Z,3.31
2019-01-30T11:06:40.297Z,3.31
2019-01-30T11:07:40.173Z,3.31
2019-01-30T11:08:40.512Z,3.31
2019-01-30T11:09:40.225Z,3.34
2019-01-30T11:10:40.255Z,3.35
2019-01-30T11:11:40.266Z,3.38
2019-01-30T11:12:40.243Z,3.39
2019-01-30T11:13:40.987Z,3.36
2019-01-30T11:14:41.428Z,3.38
2019-01-30T11:15:40.356Z,3.38
2019-01-30T11:16:40.573Z,3.42
2019-01-30T11:17:40.474Z,3.45
2019-01-30T11:18:40.612Z,3.46
2019-01-30T11:19:40.266Z,3.56
2019-01-30T11:20:40.214Z,3.56
2019-01-30T11:21:40.721Z,3.61
2019-01-30T11:22:40.359Z,3.58
2019-01-30T11:23:40.461Z,3.6
2019-01-30T11:24:40.328Z,3.6
2019-01-30T11:25:40.283Z,3.62
2019-01-30T11:26:40.624Z,3.66
2019-01-30T11:27:40.233Z,3.64
2019-01-30T11:28:40.339Z,3.67
2019-01-30T11:29:40.304Z,3.69
2019-01-30T11:30:41.095Z,3.66
2019-01-30T11:31:41.485Z,3.69
2019-01-30T11:32:40.230Z,3.7
2019-01-30T11:33:40.969Z,3.73
2019-01-30T11:34:40.237Z,3.76
2019-01-30T11:35:40.261Z,3.76
2019-01-30T11:36:40.935Z,3.75
2019-01-30T11:37:41.143Z,3.77
2019-01-30T11:38:40.430Z,3.8
2019-01-30T11:39:41.209Z,3.81
2019-01-30T11:40:40.731Z,3.85
2019-01-30T11:41:41.527Z,3.91
2019-01-30T11:42:40.210Z,3.94
2019-01-30T11:43:41.302Z,3.94
2019-01-30T11:44:40.299Z,3.93
2019-01-30T11:45:40.506Z,3.94
2019-01-30T11:46:40.472Z,3.95
2019-01-30T11:47:40.232Z,3.96
2019-01-30T11:48:40.483Z,3.95
2019-01-30T11:49:40.412Z,3.95
2019-01-30T11:50:40.416Z,3.94
2019-01-30T11:51:40.169Z,3.9
2019-01-30T11:52:41.043Z,3.91
2019-01-30T11:53:40.449Z,3.9
2019-01-30T11:54:40.947Z,3.89
2019-01-30T11:55:40.645Z,3.9
2019-01-30T11:56:41.385Z,3.91
2019-01-30T11:57:40.211Z,3.9
2019-01-30T11:58:40.252Z,3.91
2019-01-30T11:59:40.465Z,3.91
2019-01-30T12:00:40.414Z,3.91
2019-01-30T12:01:40.793Z,3.9
2019-01-30T12:02:48.822Z,3.89
2019-01-30T12:03:40.173Z,3.89
2019-01-30T12:04:40.486Z,3.88
2019-01-30T12:05:40.572Z,3.88
2019-01-30T12:06:40.318Z,3.86
2019-01-30T12:07:40.428Z,3.87
2019-01-30T12:08:40.312Z,3.85
2019-01-30T12:09:40.422Z,3.88
2019-01-30T12:10:40.178Z,3.86
2019-01-30T12:11:40.110Z,3.84
2019-01-30T12:12:40.449Z,3.87
2019-01-30T12:13:40.458Z,3.88
2019-01-30T12:14:40.155Z,3.86
2019-01-30T12:15:40.271Z,3.85
2019-01-30T12:16:40.493Z,3.85
2019-01-30T12:17:40.392Z,3.84
2019-01-30T12:18:40.517Z,3.84
2019-01-30T12:19:40.245Z,3.83
2019-01-30T12:20:40.275Z,3.81
2019-01-30T12:21:40.261Z,3.81
2019-01-30T12:22:40.212Z,3.78
2019-01-30T12:23:40.208Z,3.82
2019-01-30T12:24:40.368Z,3.81
2019-01-30T12:25:40.294Z,3.82
2019-01-30T12:26:40.336Z,3.82
2019-01-30T12:27:40.358Z,3.8
2019-01-30T12:28:40.170Z,3.8
2019-01-30T12:29:40.527Z,3.76
2019-01-30T12:30:40.127Z,3.76
2019-01-30T12:31:40.472Z,3.78
2019-01-30T12:32:40.124Z,3.76
2019-01-30T12:33:40.512Z,3.76
2019-01-30T12:34:40.195Z,3.74
2019-01-30T12:35:40.562Z,3.76
2019-01-30T12:36:40.120Z,3.77
2019-01-30T12:37:40.718Z,3.77
2019-01-30T12:38:40.110Z,3.75
2019-01-30T12:39:40.236Z,3.73
2019-01-30T12:40:40.131Z,3.74
2019-01-30T12:41:41.017Z,3.72
2019-01-30T12:42:40.177Z,3.71
2019-01-30T12:43:40.460Z,3.7
2019-01-30T12:44:40.085Z,3.69
2019-01-30T12:45:40.401Z,3.69
2019-01-30T12:46:40.106Z,3.69
2019-01-30T12:47:40.317Z,3.64
2019-01-30T12:48:40.445Z,3.64
2019-01-30T12:49:40.324Z,3.64
2019-01-30T12:50:40.293Z,3.67
2019-01-30T12:51:40.337Z,3.63
2019-01-30T12:52:40.616Z,3.64
2019-01-30T12:53:40.156Z,3.63
2019-01-30T12:54:40.325Z,3.63
2019-01-30T12:55:40.015Z,3.62
2019-01-30T12:56:40.232Z,3.62
2019-01-30T12:57:40.541Z,3.61
2019-01-30T12:58:40.097Z,3.61
2019-01-30T12:59:41.432Z,3.57
2019-01-30T13:00:40.594Z,3.55
2019-01-30T13:01:40.136Z,3.51
2019-01-30T13:02:40.124Z,3.49
2019-01-30T13:03:40.154Z,3.46
2019-01-30T13:04:40.313Z,3.46
2019-01-30T13:05:40.299Z,3.44
2019-01-30T13:06:40.302Z,3.44
2019-01-30T13:07:40.077Z,3.43
2019-01-30T13:08:40.061Z,3.37
2019-01-30T13:09:40.134Z,3.34
2019-01-30T13:10:40.468Z,3.36
2019-01-30T13:11:41.860Z,3.35
2019-01-30T13:12:40.090Z,3.33
2019-01-30T13:13:40.093Z,3.31
2019-01-30T13:14:40.379Z,3.33
2019-01-30T13:15:41.851Z,3.34
2019-01-30T13:16:40.001Z,3.34
2019-01-30T13:17:40.023Z,3.29
2019-01-30T13:18:40.229Z,3.29
2019-01-30T13:19:40.287Z,3.3
2019-01-30T13:20:40.266Z,3.28
2019-01-30T13:21:40.427Z,3.26
2019-01-30T13:22:40.229Z,3.22